createdAt,value
2022-11-20T00:01:27.568Z,19.60
2022-11-20T00:03:56.497Z,19.97
2022-11-20T00:06:24.837Z,20.07
2022-11-20T00:08:52.229Z,19.96
2022-11-20T00:11:24.954Z,19.94
2022-11-20T00:13:55.292Z,20.08
2022-11-20T00:16:25.905Z,20.10
2022-11-20T00:18:53.385Z,20.11
2022-11-20T00:21:27.155Z,20.00
2022-11-20T00:23:56.577Z,20.08
2022-11-20T00:26:26.510Z,20.28
2022-11-20T00:28:56.879Z,20.00
2022-11-20T00:31:24.563Z,19.84
2022-11-20T00:33:52.069Z,19.82
2022-11-20T00:36:27.799Z,20.18
2022-11-20T00:38:57.535Z,19.78
2022-11-20T00:41:25.834Z,19.82
2022-11-20T00:43:54.349Z,19.71
2022-11-20T00:46:24.632Z,19.59
2022-11-20T00:48:52.064Z,19.57
2022-11-20T00:51:22.176Z,19.56
2022-11-20T00:53:49.510Z,19.44
2022-11-20T00:56:19.279Z,19.35
2022-11-20T00:58:48.555Z,19.53
2022-11-20T01:01:27.868Z,19.80
2022-11-20T01:03:58.414Z,19.57
2022-11-20T01:06:32.630Z,19.82
2022-11-20T01:09:04.826Z,19.72
2022-11-20T01:11:34.145Z,20.01
2022-11-20T01:14:04.139Z,19.90
2022-11-20T01:16:37.549Z,19.98
2022-11-20T01:19:10.601Z,19.97
2022-11-20T01:21:40.649Z,20.00
2022-11-20T01:24:11.587Z,19.77
2022-11-20T01:26:41.412Z,19.76
2022-11-20T01:29:24.327Z,20.01
2022-11-20T01:31:52.713Z,19.62
2022-11-20T01:34:23.103Z,19.79
2022-11-20T01:36:51.806Z,19.64
2022-11-20T01:39:23.156Z,19.85
2022-11-20T01:42:12.063Z,19.75
2022-11-20T01:44:57.810Z,19.75
2022-11-20T01:47:27.035Z,19.43
2022-11-20T01:50:20.350Z,19.76
2022-11-20T01:52:59.090Z,19.84
2022-11-20T01:55:32.002Z,19.78
2022-11-20T01:57:59.894Z,19.40
2022-11-20T02:00:26.805Z,19.40
2022-11-20T02:03:00.048Z,19.86
2022-11-20T02:05:35.151Z,19.83
2022-11-20T02:08:05.603Z,19.69
2022-11-20T02:10:32.937Z,19.36
2022-11-20T02:13:19.034Z,19.44
2022-11-20T02:15:46.773Z,19.43
2022-11-20T02:18:17.376Z,19.78
2022-11-20T02:20:46.840Z,19.19
2022-11-20T02:23:28.233Z,19.44
2022-11-20T02:25:56.816Z,19.72
2022-11-20T02:28:24.299Z,19.60
2022-11-20T02:30:51.180Z,18.93
2022-11-20T02:33:18.038Z,19.36
2022-11-20T02:35:47.712Z,19.75
2022-11-20T02:38:15.470Z,19.59
2022-11-20T02:40:42.818Z,19.68
2022-11-20T02:43:10.378Z,19.73
2022-11-20T02:45:37.889Z,19.76
2022-11-20T02:48:06.286Z,19.61
2022-11-20T02:50:33.171Z,18.92
2022-11-20T02:53:00.014Z,19.19
2022-11-20T02:55:26.970Z,19.60
2022-11-20T02:57:53.866Z,19.70
2022-11-20T03:00:20.887Z,19.04
2022-11-20T03:02:47.786Z,19.23
2022-11-20T03:05:16.998Z,19.18
2022-11-20T03:07:45.165Z,18.98
2022-11-20T03:10:12.326Z,18.19
2022-11-20T03:12:39.235Z,18.51
2022-11-20T03:15:06.724Z,17.50
2022-11-20T03:17:33.621Z,16.80
2022-11-20T03:20:00.618Z,17.40
2022-11-20T03:22:30.946Z,18.22
2022-11-20T03:24:57.999Z,17.75
2022-11-20T03:27:24.987Z,18.56
2022-11-20T03:29:51.892Z,17.77
2022-11-20T03:32:18.774Z,18.53
2022-11-20T03:34:45.688Z,18.46
2022-11-20T03:37:12.553Z,18.01
2022-11-20T03:39:39.419Z,18.98
2022-11-20T03:42:26.262Z,18.85
2022-11-20T03:44:53.125Z,18.92
2022-11-20T03:47:20.051Z,19.13
2022-11-20T03:49:46.915Z,18.51
2022-11-20T03:52:13.790Z,18.89
2022-11-20T03:54:40.682Z,18.64
2022-11-20T03:57:07.575Z,18.67
2022-11-20T03:59:34.478Z,18.54
2022-11-20T04:02:01.407Z,18.48
2022-11-20T04:04:28.294Z,18.36
2022-11-20T04:06:55.166Z,17.62
2022-11-20T04:09:22.650Z,18.26
2022-11-20T04:11:49.784Z,18.12
2022-11-20T04:14:17.455Z,18.17
2022-11-20T04:16:44.777Z,18.53
2022-11-20T04:19:16.995Z,18.87
2022-11-20T04:21:44.940Z,18.28
2022-11-20T04:24:12.054Z,18.08
2022-11-20T04:26:39.526Z,17.97
2022-11-20T04:29:06.602Z,17.94
2022-11-20T04:31:35.985Z,17.63
2022-11-20T04:34:05.754Z,16.26
2022-11-20T04:36:34.088Z,17.47
2022-11-20T04:39:04.844Z,16.98
2022-11-20T04:41:35.647Z,17.70
2022-11-20T04:44:04.961Z,17.53
2022-11-20T04:46:41.243Z,17.82
2022-11-20T04:49:08.713Z,16.87
2022-11-20T04:51:36.110Z,16.94
2022-11-20T04:54:03.160Z,17.79
2022-11-20T04:56:30.075Z,17.74
2022-11-20T04:59:01.163Z,17.88
2022-11-20T05:01:28.087Z,17.39
2022-11-20T05:03:55.142Z,17.08
2022-11-20T05:06:22.952Z,18.24
2022-11-20T05:08:50.296Z,17.52
2022-11-20T05:11:20.751Z,16.96
2022-11-20T05:13:48.323Z,17.40
2022-11-20T05:16:19.468Z,17.75
2022-11-20T05:18:46.846Z,17.47
2022-11-20T05:21:14.460Z,17.84
2022-11-20T05:23:42.538Z,17.42
2022-11-20T05:26:15.465Z,17.73
2022-11-20T05:28:42.382Z,18.00
2022-11-20T05:31:15.474Z,17.38
2022-11-20T05:33:44.359Z,17.84
2022-11-20T05:36:13.899Z,17.89
2022-11-20T05:38:41.354Z,17.71
2022-11-20T05:41:20.301Z,18.25
2022-11-20T05:43:49.112Z,18.00
2022-11-20T05:46:24.993Z,17.59
2022-11-20T05:48:53.531Z,17.26
2022-11-20T05:51:20.541Z,17.37
2022-11-20T05:53:48.673Z,17.21
2022-11-20T05:56:21.944Z,17.25
2022-11-20T05:58:49.636Z,18.28
2022-11-20T06:01:24.432Z,17.60
2022-11-20T06:03:52.209Z,18.12
2022-11-20T06:06:20.356Z,17.08
2022-11-20T06:08:47.460Z,16.89
2022-11-20T06:11:15.729Z,17.56
2022-11-20T06:13:43.036Z,17.56
2022-11-20T06:16:12.179Z,17.36
2022-11-20T06:18:39.710Z,17.70
2022-11-20T06:21:10.107Z,17.99
2022-11-20T06:23:38.339Z,18.18
2022-11-20T06:26:08.629Z,18.56
2022-11-20T06:28:36.175Z,17.21
2022-11-20T06:31:03.633Z,17.05
2022-11-20T06:33:30.906Z,17.60
2022-11-20T06:36:03.421Z,17.38
2022-11-20T06:38:32.950Z,17.57
2022-11-20T06:40:59.937Z,17.12
2022-11-20T06:43:27.018Z,17.95
2022-11-20T06:45:54.946Z,17.77
2022-11-20T06:48:23.440Z,17.73
2022-11-20T06:50:50.678Z,16.75
2022-11-20T06:53:17.664Z,17.32
2022-11-20T06:55:46.445Z,17.25
2022-11-20T06:58:15.046Z,16.83
2022-11-20T07:00:42.725Z,17.73
2022-11-20T07:03:12.820Z,17.85
2022-11-20T07:05:40.887Z,17.64
2022-11-20T07:08:08.897Z,17.74
2022-11-20T07:10:36.309Z,17.28
2022-11-20T07:13:03.359Z,16.44
2022-11-20T07:15:30.820Z,17.56
2022-11-20T07:18:01.126Z,18.00
2022-11-20T07:20:28.638Z,17.64
2022-11-20T07:22:56.991Z,16.90
2022-11-20T07:25:27.545Z,17.34
2022-11-20T07:27:59.368Z,17.84
2022-11-20T07:30:27.657Z,17.38
2022-11-20T07:32:56.341Z,17.99
2022-11-20T07:35:24.826Z,16.91
2022-11-20T07:37:52.294Z,16.95
2022-11-20T07:40:20.616Z,16.95
2022-11-20T07:42:55.155Z,17.70
2022-11-20T07:45:24.294Z,17.30
2022-11-20T07:47:51.985Z,17.36
2022-11-20T07:50:20.136Z,17.58
2022-11-20T07:52:47.631Z,18.28
2022-11-20T07:55:14.900Z,16.98
2022-11-20T07:57:41.872Z,17.89
2022-11-20T08:00:11.739Z,18.01
2022-11-20T08:02:42.196Z,17.95
2022-11-20T08:05:12.206Z,17.51
2022-11-20T08:07:40.857Z,17.64
2022-11-20T08:10:10.439Z,16.65
2022-11-20T08:12:56.204Z,17.04
2022-11-20T08:15:23.206Z,16.95
2022-11-20T08:18:15.506Z,17.67
2022-11-20T08:20:36.995Z,17.61
2022-11-20T08:23:06.730Z,17.91
2022-11-20T08:25:36.225Z,17.64
2022-11-20T08:28:19.864Z,17.63
2022-11-20T08:30:47.628Z,17.54
2022-11-20T08:33:15.003Z,18.07
2022-11-20T08:35:42.652Z,18.08
2022-11-20T08:38:10.543Z,17.82
2022-11-20T08:40:37.583Z,17.58
2022-11-20T08:43:07.671Z,18.03
2022-11-20T08:45:35.410Z,17.56
2022-11-20T08:48:04.295Z,17.94
2022-11-20T08:50:32.993Z,17.70
2022-11-20T08:53:07.485Z,18.89
2022-11-20T08:55:37.806Z,16.21
2022-11-20T08:58:05.963Z,18.27
2022-11-20T09:00:36.226Z,18.41
2022-11-20T09:03:03.192Z,18.44
2022-11-20T09:05:30.678Z,17.58
2022-11-20T09:07:58.990Z,17.81
2022-11-20T09:10:26.974Z,17.65
2022-11-20T09:12:55.979Z,17.46
2022-11-20T09:15:24.024Z,17.58
2022-11-20T09:18:02.448Z,18.45
2022-11-20T09:20:31.085Z,18.54
2022-11-20T09:22:58.688Z,18.13
2022-11-20T09:25:26.219Z,18.97
2022-11-20T09:27:58.120Z,18.92
2022-11-20T09:30:25.317Z,19.06
2022-11-20T09:32:53.575Z,18.88
2022-11-20T09:35:20.891Z,23.79
2022-11-20T09:37:47.833Z,22.11
2022-11-20T09:40:30.450Z,21.47
2022-11-20T09:43:34.921Z,21.95
2022-11-20T09:46:34.752Z,21.15
2022-11-20T09:49:10.715Z,21.10
2022-11-20T09:52:21.913Z,20.49
2022-11-20T09:54:49.565Z,19.71
2022-11-20T09:57:23.058Z,20.74
2022-11-20T10:00:03.997Z,20.66
2022-11-20T10:02:46.297Z,19.53
2022-11-20T10:05:22.362Z,20.43
2022-11-20T10:08:17.379Z,20.71
2022-11-20T10:11:02.424Z,21.94
2022-11-20T10:14:26.116Z,19.72
2022-11-20T10:17:11.174Z,19.47
2022-11-20T10:20:15.781Z,20.12
2022-11-20T10:23:06.694Z,20.01
2022-11-20T10:25:45.582Z,19.07
2022-11-20T10:28:58.753Z,19.35
2022-11-20T10:31:38.793Z,19.13
2022-11-20T10:34:24.854Z,18.60
2022-11-20T10:37:23.906Z,19.40
2022-11-20T10:40:18.948Z,18.80
2022-11-20T10:43:12.329Z,18.25
2022-11-20T10:45:48.457Z,17.77
2022-11-20T10:48:34.224Z,17.85
2022-11-20T10:51:46.173Z,19.92
2022-11-20T10:54:34.918Z,16.08
2022-11-20T10:57:41.884Z,18.72
2022-11-20T11:00:13.245Z,19.35
2022-11-20T11:03:14.333Z,19.92
2022-11-20T11:05:55.222Z,19.40
2022-11-20T11:08:23.019Z,18.09
2022-11-20T11:11:06.751Z,19.79
2022-11-20T11:14:15.157Z,19.17
2022-11-20T11:16:59.093Z,18.20
2022-11-20T11:19:26.348Z,18.90
2022-11-20T11:21:57.406Z,18.79
2022-11-20T11:24:45.993Z,19.20
2022-11-20T11:27:18.449Z,19.30
2022-11-20T11:29:46.851Z,17.31
2022-11-20T11:32:21.601Z,19.78
2022-11-20T11:35:07.445Z,18.80
2022-11-20T11:37:37.590Z,18.07
2022-11-20T11:43:00.804Z,19.09
2022-11-20T11:45:28.154Z,19.33
2022-11-20T11:47:58.862Z,18.86
2022-11-20T11:50:28.510Z,20.33
2022-11-20T11:53:14.102Z,19.05
2022-11-20T11:55:55.499Z,20.01
2022-11-20T11:58:54.853Z,20.53
2022-11-20T12:01:30.452Z,21.06
2022-11-20T12:04:45.042Z,21.28
2022-11-20T12:07:49.682Z,21.00
2022-11-20T12:10:46.389Z,21.90
2022-11-20T12:13:54.324Z,20.20
2022-11-20T12:16:22.028Z,20.29
2022-11-20T12:18:53.823Z,20.72
2022-11-20T12:21:40.188Z,19.49
2022-11-20T12:24:34.276Z,19.20
2022-11-20T12:27:31.240Z,18.91
2022-11-20T12:30:13.599Z,19.82
2022-11-20T12:32:58.669Z,20.46
2022-11-20T12:35:57.582Z,21.16
2022-11-20T12:38:47.981Z,20.86
2022-11-20T12:42:14.954Z,20.85
2022-11-20T12:45:15.953Z,20.77
2022-11-20T12:47:57.250Z,20.60
2022-11-20T12:51:20.063Z,20.77
2022-11-20T12:54:23.555Z,21.67
2022-11-20T12:57:12.574Z,20.50
2022-11-20T13:00:19.630Z,18.63
2022-11-20T13:03:33.476Z,19.97
2022-11-20T13:06:18.576Z,19.72
2022-11-20T13:08:59.703Z,21.16
2022-11-20T13:11:38.558Z,20.40
2022-11-20T13:14:29.690Z,20.25
2022-11-20T13:17:22.691Z,20.53
2022-11-20T13:19:59.606Z,20.14
2022-11-20T13:22:46.847Z,20.39
2022-11-20T13:25:35.498Z,19.66
2022-11-20T13:28:22.684Z,20.92
2022-11-20T13:30:55.109Z,18.79
2022-11-20T13:33:39.288Z,19.24
2022-11-20T13:36:27.005Z,19.46
2022-11-20T13:38:56.317Z,18.18
2022-11-20T13:41:36.181Z,19.25
2022-11-20T13:44:28.335Z,18.10
2022-11-20T13:46:55.278Z,18.09
2022-11-20T13:49:31.881Z,19.87
2022-11-20T13:52:40.421Z,20.08
2022-11-20T13:56:00.945Z,20.20
2022-11-20T13:59:05.353Z,21.00
2022-11-20T14:01:33.309Z,21.58
2022-11-20T14:04:07.615Z,21.10
2022-11-20T14:06:43.436Z,20.69
2022-11-20T14:09:26.581Z,21.30
2022-11-20T14:11:53.906Z,19.79
2022-11-20T14:14:30.191Z,20.71
2022-11-20T14:17:08.610Z,20.50
2022-11-20T14:19:38.231Z,19.42
2022-11-20T14:22:10.586Z,18.87
2022-11-20T14:24:38.445Z,19.80
2022-11-20T14:27:05.486Z,18.37
2022-11-20T14:29:38.479Z,18.99
2022-11-20T14:32:06.245Z,19.06
2022-11-20T14:34:39.641Z,19.14
2022-11-20T14:37:16.524Z,18.67
2022-11-20T14:39:55.258Z,18.81
2022-11-20T14:42:26.523Z,18.93
2022-11-20T14:44:57.809Z,18.44
2022-11-20T14:47:31.719Z,18.86
2022-11-20T14:50:02.611Z,18.83
2022-11-20T14:52:31.990Z,18.58
2022-11-20T14:55:02.671Z,18.37
2022-11-20T14:57:35.659Z,18.45
2022-11-20T15:00:30.456Z,18.94
2022-11-20T15:02:58.448Z,18.64
2022-11-20T15:05:45.881Z,19.53
2022-11-20T15:08:14.493Z,18.87
2022-11-20T15:10:49.402Z,18.82
2022-11-20T15:13:23.459Z,19.10
2022-11-20T15:15:53.608Z,18.41
2022-11-20T15:18:33.851Z,19.80
2022-11-20T15:21:10.155Z,20.21
2022-11-20T15:23:37.114Z,19.42
2022-11-20T15:26:06.977Z,18.65
2022-11-20T15:28:48.726Z,19.57
2022-11-20T15:31:19.791Z,19.09
2022-11-20T15:33:46.928Z,19.94
2022-11-20T15:36:13.996Z,20.31
2022-11-20T15:38:41.311Z,20.18
2022-11-20T15:41:08.868Z,19.83
2022-11-20T15:43:36.103Z,20.60
2022-11-20T15:46:18.440Z,20.74
2022-11-20T15:48:55.589Z,22.08
2022-11-20T15:51:26.346Z,21.23
2022-11-20T15:53:53.743Z,21.51
2022-11-20T15:56:21.121Z,21.37
2022-11-20T15:58:48.109Z,20.74
2022-11-20T16:01:18.935Z,20.72
2022-11-20T16:03:46.756Z,20.66
2022-11-20T16:06:14.211Z,20.69
2022-11-20T16:08:41.555Z,20.33
2022-11-20T16:11:11.429Z,20.54
2022-11-20T16:13:57.392Z,20.29
2022-11-20T16:16:31.081Z,20.29
2022-11-20T16:18:58.745Z,19.87
2022-11-20T16:21:31.795Z,19.94
2022-11-20T16:24:04.335Z,19.80
2022-11-20T16:26:32.177Z,19.86
2022-11-20T16:29:04.776Z,19.36
2022-11-20T16:31:32.540Z,19.25
2022-11-20T16:34:11.915Z,19.57
2022-11-20T16:36:45.712Z,19.35
2022-11-20T16:39:23.611Z,19.62
2022-11-20T16:41:54.556Z,19.53
2022-11-20T16:44:22.414Z,19.38
2022-11-20T16:46:50.176Z,19.81
2022-11-20T16:49:17.913Z,20.00
2022-11-20T16:51:45.432Z,19.97
2022-11-20T16:54:17.898Z,19.52
2022-11-20T16:56:52.053Z,19.78
2022-11-20T16:59:20.093Z,19.76
2022-11-20T17:01:51.169Z,20.21
2022-11-20T17:04:18.319Z,19.67
2022-11-20T17:06:45.330Z,20.29
2022-11-20T17:09:13.117Z,20.47
2022-11-20T17:11:40.549Z,19.98
2022-11-20T17:14:10.191Z,19.96
2022-11-20T17:16:38.192Z,20.54
2022-11-20T17:19:05.843Z,20.84
2022-11-20T17:21:36.092Z,20.23
2022-11-20T17:24:06.272Z,20.50
2022-11-20T17:26:34.688Z,21.16
2022-11-20T17:29:09.976Z,20.93
2022-11-20T17:31:40.555Z,20.48
2022-11-20T17:34:11.785Z,20.73
2022-11-20T17:36:45.061Z,20.53
2022-11-20T17:39:16.823Z,20.86
2022-11-20T17:41:44.865Z,19.47
2022-11-20T17:44:13.380Z,19.59
2022-11-20T17:46:40.558Z,19.31
2022-11-20T17:49:07.519Z,20.47
2022-11-20T17:51:35.660Z,21.02
2022-11-20T17:54:05.431Z,19.60
2022-11-20T17:56:53.114Z,20.36
2022-11-20T17:59:20.546Z,20.45
2022-11-20T18:01:48.182Z,19.49
2022-11-20T18:04:15.367Z,19.25
2022-11-20T18:06:42.911Z,20.24
2022-11-20T18:09:10.271Z,19.52
2022-11-20T18:11:42.254Z,20.53
2022-11-20T18:14:32.108Z,20.30
2022-11-20T18:17:08.163Z,20.24
2022-11-20T18:19:44.948Z,19.60
2022-11-20T18:22:19.746Z,19.40
2022-11-20T18:24:46.807Z,19.65
2022-11-20T18:27:20.608Z,19.02
2022-11-20T18:29:51.733Z,19.50
2022-11-20T18:32:23.086Z,19.77
2022-11-20T18:34:51.311Z,19.63
2022-11-20T18:37:18.547Z,18.77
2022-11-20T18:39:45.550Z,18.01
2022-11-20T18:42:33.308Z,20.20
2022-11-20T18:45:01.332Z,20.08
2022-11-20T18:47:31.870Z,20.97
2022-11-20T18:50:01.012Z,21.39
2022-11-20T18:52:33.693Z,21.37
2022-11-20T18:55:02.746Z,20.17
2022-11-20T18:57:30.230Z,19.40
2022-11-20T19:00:05.046Z,19.59
2022-11-20T19:05:20.915Z,18.00
2022-11-20T19:07:48.205Z,18.27
2022-11-20T19:10:20.271Z,16.36
2022-11-20T19:12:47.514Z,17.26
2022-11-20T19:15:14.456Z,21.70
2022-11-20T19:17:41.395Z,20.30
2022-11-20T19:20:08.637Z,15.80
2022-11-20T19:22:35.536Z,17.57
2022-11-20T19:25:02.479Z,18.23
2022-11-20T19:27:29.896Z,17.70
2022-11-20T19:30:03.090Z,18.75
2022-11-20T19:32:30.372Z,18.51
2022-11-20T19:34:57.301Z,18.65
2022-11-20T19:37:25.281Z,18.67
2022-11-20T19:39:52.246Z,18.21
2022-11-20T19:42:19.226Z,18.81
2022-11-20T19:44:46.149Z,17.16
2022-11-20T19:47:14.699Z,16.84
2022-11-20T19:49:42.045Z,18.07
2022-11-20T19:52:11.494Z,18.66
2022-11-20T19:54:38.425Z,19.15
2022-11-20T19:57:05.778Z,18.96
2022-11-20T19:59:32.787Z,18.73
2022-11-20T20:02:02.015Z,19.04
2022-11-20T20:04:29.493Z,18.78
2022-11-20T20:06:56.442Z,18.15
2022-11-20T20:09:23.911Z,18.88
2022-11-20T20:11:50.994Z,18.93
2022-11-20T20:14:18.385Z,18.41
2022-11-20T20:16:45.741Z,17.34
2022-11-20T20:19:16.328Z,19.24
2022-11-20T20:21:43.855Z,17.83
2022-11-20T20:24:12.220Z,18.50
2022-11-20T20:26:39.466Z,17.69
2022-11-20T20:29:06.407Z,16.03
2022-11-20T20:31:34.227Z,16.93
2022-11-20T20:34:03.199Z,17.82
2022-11-20T20:36:30.240Z,17.15
2022-11-20T20:39:04.683Z,16.78
2022-11-20T20:41:32.075Z,18.54
2022-11-20T20:44:17.980Z,18.95
2022-11-20T20:46:44.995Z,17.80
2022-11-20T20:49:12.006Z,16.45
2022-11-20T20:51:39.087Z,17.61
2022-11-20T20:54:06.613Z,17.63
2022-11-20T20:56:33.491Z,17.94
2022-11-20T20:59:00.492Z,18.20
2022-11-20T21:01:30.552Z,17.88
2022-11-20T21:03:58.235Z,18.10
2022-11-20T21:06:26.305Z,18.50
2022-11-20T21:08:55.812Z,17.40
2022-11-20T21:11:23.099Z,17.56
2022-11-20T21:13:50.753Z,18.60
2022-11-20T21:16:22.354Z,19.03
2022-11-20T21:18:49.333Z,17.97
2022-11-20T21:21:36.145Z,18.49
2022-11-20T21:24:03.851Z,19.16
2022-11-20T21:26:30.834Z,18.78
2022-11-20T21:28:58.084Z,18.59
2022-11-20T21:31:26.778Z,18.41
2022-11-20T21:33:56.283Z,16.98
2022-11-20T21:36:26.838Z,18.25
2022-11-20T21:38:55.410Z,16.31
2022-11-20T21:41:24.944Z,16.14
2022-11-20T21:44:23.662Z,16.27
2022-11-20T21:46:45.303Z,16.51
2022-11-20T21:49:14.455Z,17.47
2022-11-20T21:51:41.902Z,18.59
2022-11-20T21:54:11.755Z,17.24
2022-11-20T21:56:38.881Z,16.00
2022-11-20T21:59:06.164Z,16.93
2022-11-20T22:01:33.251Z,17.07
2022-11-20T22:04:02.740Z,15.69
2022-11-20T22:06:34.780Z,15.84
2022-11-20T22:09:03.200Z,16.05
2022-11-20T22:11:30.614Z,16.94
2022-11-20T22:14:16.421Z,17.11
2022-11-20T22:16:43.420Z,16.75
2022-11-20T22:19:10.832Z,16.93
2022-11-20T22:21:39.988Z,16.33
2022-11-20T22:24:07.308Z,15.62
2022-11-20T22:26:40.008Z,17.36
2022-11-20T22:29:08.099Z,16.79
2022-11-20T22:31:34.991Z,14.92
2022-11-20T22:34:02.731Z,15.88
2022-11-20T22:36:31.343Z,15.21
2022-11-20T22:38:59.083Z,16.07
2022-11-20T22:41:28.456Z,15.07
2022-11-20T22:43:58.225Z,15.36
2022-11-20T22:46:28.364Z,16.86
2022-11-20T22:49:01.661Z,16.84
2022-11-20T22:51:35.180Z,17.06
2022-11-20T22:54:03.488Z,16.34
2022-11-20T22:56:31.361Z,16.06
2022-11-20T22:58:58.680Z,15.69
2022-11-20T23:01:27.402Z,17.00
2022-11-20T23:04:00.405Z,16.65
2022-11-20T23:06:34.006Z,16.66
2022-11-20T23:09:01.279Z,16.39
2022-11-20T23:11:32.312Z,17.24
2022-11-20T23:14:04.737Z,16.36
2022-11-20T23:16:33.267Z,16.83
2022-11-20T23:19:07.255Z,16.59
2022-11-20T23:21:36.541Z,17.16
2022-11-20T23:24:04.349Z,17.55
2022-11-20T23:26:34.086Z,17.01
2022-11-20T23:29:01.678Z,16.87
2022-11-20T23:31:31.812Z,16.95
2022-11-20T23:33:59.135Z,16.69
2022-11-20T23:36:26.846Z,16.76
2022-11-20T23:38:54.304Z,15.75
2022-11-20T23:41:21.261Z,15.01
2022-11-20T23:43:48.160Z,16.44
2022-11-20T23:46:16.721Z,15.40
2022-11-20T23:48:45.082Z,15.50
2022-11-20T23:51:12.675Z,16.20
2022-11-20T23:53:39.856Z,16.47
2022-11-20T23:56:06.990Z,14.21
2022-11-20T23:58:37.037Z,17.20
